Kansas City, Missouri
Traffic Map
Current Weather Conditions
Kansas City, Missouri
Clear
Clear
13°
Feels Like: 13°
Wind Chill: 13° Ceiling: Unl
Heat Index: 13° Visibility: 10mi
Dew Point: Wind: 13mph
Humidity: 59% Direction: 210° (SSW)
Pressure: 29.69in Gusts: 21mph
Raw Report DataKMKC 290654Z 21011G18KT 10SM CLR 13/05 A2969 RMK AO2 SLP051 T01280050
Traffic Incident Summary
Active as of:
Severity:
Category:
InformationThere was an issue retrieving the traffic information for this location. Please try a different location or try again shortly.
Advertisements
Track Severe Weather on mobile